sensor_id;sensor_type;location;lat;lon;timestamp;temperature;humidity
19164;DHT22;9714;51.208;4.242;2023-03-02T00:00:35;4.50;93.30
19164;DHT22;9714;51.208;4.242;2023-03-02T00:03:09;4.40;93.70
19164;DHT22;9714;51.208;4.242;2023-03-02T00:05:39;4.40;94.10
19164;DHT22;9714;51.208;4.242;2023-03-02T00:08:08;4.40;94.50
19164;DHT22;9714;51.208;4.242;2023-03-02T00:10:45;4.50;94.70
19164;DHT22;9714;51.208;4.242;2023-03-02T00:13:13;4.40;94.70
19164;DHT22;9714;51.208;4.242;2023-03-02T00:15:43;4.50;95.00
19164;DHT22;9714;51.208;4.242;2023-03-02T00:18:16;4.30;95.00
19164;DHT22;9714;51.208;4.242;2023-03-02T00:20:44;4.10;96.00
19164;DHT22;9714;51.208;4.242;2023-03-02T00:23:17;4.20;96.40
19164;DHT22;9714;51.208;4.242;2023-03-02T00:25:54;4.30;96.70
19164;DHT22;9714;51.208;4.242;2023-03-02T00:28:27;4.30;97.20
19164;DHT22;9714;51.208;4.242;2023-03-02T00:31:03;4.10;97.60
19164;DHT22;9714;51.208;4.242;2023-03-02T00:33:32;4.00;98.30
19164;DHT22;9714;51.208;4.242;2023-03-02T00:36:21;4.00;98.80
19164;DHT22;9714;51.208;4.242;2023-03-02T00:38:49;4.10;99.00
19164;DHT22;9714;51.208;4.242;2023-03-02T00:41:18;4.00;99.20
19164;DHT22;9714;51.208;4.242;2023-03-02T00:43:47;4.10;99.60
19164;DHT22;9714;51.208;4.242;2023-03-02T00:46:17;3.90;99.90
19164;DHT22;9714;51.208;4.242;2023-03-02T00:48:44;3.90;99.90
19164;DHT22;9714;51.208;4.242;2023-03-02T00:51:12;3.90;99.90
19164;DHT22;9714;51.208;4.242;2023-03-02T00:53:47;3.90;99.90
19164;DHT22;9714;51.208;4.242;2023-03-02T00:56:14;3.80;99.90
19164;DHT22;9714;51.208;4.242;2023-03-02T00:58:45;3.60;99.90
19164;DHT22;9714;51.208;4.242;2023-03-02T01:01:12;3.70;99.90
19164;DHT22;9714;51.208;4.242;2023-03-02T01:03:54;3.60;99.90
19164;DHT22;9714;51.208;4.242;2023-03-02T01:06:22;3.60;99.90
19164;DHT22;9714;51.208;4.242;2023-03-02T01:08:58;3.60;99.90
19164;DHT22;9714;51.208;4.242;2023-03-02T01:11:39;3.70;99.90
19164;DHT22;9714;51.208;4.242;2023-03-02T01:14:06;3.70;99.90
19164;DHT22;9714;51.208;4.242;2023-03-02T01:16:37;3.70;99.90
19164;DHT22;9714;51.208;4.242;2023-03-02T01:19:11;3.60;99.90
19164;DHT22;9714;51.208;4.242;2023-03-02T01:21:40;3.60;99.90
19164;DHT22;9714;51.208;4.242;2023-03-02T01:24:18;3.70;99.90
19164;DHT22;9714;51.208;4.242;2023-03-02T01:26:50;3.60;99.90
19164;DHT22;9714;51.208;4.242;2023-03-02T01:29:20;3.60;99.90
19164;DHT22;9714;51.208;4.242;2023-03-02T01:31:47;3.50;99.90
19164;DHT22;9714;51.208;4.242;2023-03-02T01:34:25;3.50;99.90
19164;DHT22;9714;51.208;4.242;2023-03-02T01:36:55;3.50;99.90
19164;DHT22;9714;51.208;4.242;2023-03-02T01:39:26;3.50;99.90
19164;DHT22;9714;51.208;4.242;2023-03-02T01:41:53;3.30;99.90
19164;DHT22;9714;51.208;4.242;2023-03-02T01:44:41;3.30;99.90
19164;DHT22;9714;51.208;4.242;2023-03-02T01:47:20;3.30;99.90
19164;DHT22;9714;51.208;4.242;2023-03-02T01:50:03;3.30;99.90
19164;DHT22;9714;51.208;4.242;2023-03-02T01:52:45;3.30;99.90
19164;DHT22;9714;51.208;4.242;2023-03-02T01:55:21;3.40;99.90
19164;DHT22;9714;51.208;4.242;2023-03-02T01:57:53;3.30;99.90
19164;DHT22;9714;51.208;4.242;2023-03-02T02:00:25;3.30;99.90
19164;DHT22;9714;51.208;4.242;2023-03-02T02:02:54;3.30;99.90
19164;DHT22;9714;51.208;4.242;2023-03-02T02:05:43;3.40;99.90
19164;DHT22;9714;51.208;4.242;2023-03-02T02:08:12;3.30;99.90
19164;DHT22;9714;51.208;4.242;2023-03-02T02:10:41;3.30;99.90
19164;DHT22;9714;51.208;4.242;2023-03-02T02:13:09;3.30;99.90
19164;DHT22;9714;51.208;4.242;2023-03-02T02:31:54;3.20;99.90
19164;DHT22;9714;51.208;4.242;2023-03-02T02:34:31;3.20;99.90
19164;DHT22;9714;51.208;4.242;2023-03-02T02:40:37;3.00;99.90
19164;DHT22;9714;51.208;4.242;2023-03-02T02:43:27;3.00;99.90
19164;DHT22;9714;51.208;4.242;2023-03-02T02:46:23;3.10;99.90
19164;DHT22;9714;51.208;4.242;2023-03-02T02:48:53;2.90;99.90
19164;DHT22;9714;51.208;4.242;2023-03-02T02:51:22;2.80;99.90
19164;DHT22;9714;51.208;4.242;2023-03-02T02:53:54;2.90;99.90
19164;DHT22;9714;51.208;4.242;2023-03-02T02:56:27;3.10;99.90
19164;DHT22;9714;51.208;4.242;2023-03-02T02:59:01;3.00;99.90
19164;DHT22;9714;51.208;4.242;2023-03-02T03:01:34;2.90;99.90
19164;DHT22;9714;51.208;4.242;2023-03-02T03:04:04;2.90;99.90
19164;DHT22;9714;51.208;4.242;2023-03-02T03:06:48;2.90;99.90
19164;DHT22;9714;51.208;4.242;2023-03-02T03:09:16;2.90;99.90
19164;DHT22;9714;51.208;4.242;2023-03-02T03:11:46;3.00;99.90
19164;DHT22;9714;51.208;4.242;2023-03-02T03:14:23;3.00;99.90
19164;DHT22;9714;51.208;4.242;2023-03-02T03:16:59;2.90;99.90
19164;DHT22;9714;51.208;4.242;2023-03-02T03:19:31;2.80;99.90
19164;DHT22;9714;51.208;4.242;2023-03-02T03:22:01;2.80;99.90
19164;DHT22;9714;51.208;4.242;2023-03-02T03:24:29;2.80;99.90
19164;DHT22;9714;51.208;4.242;2023-03-02T03:26:58;2.60;99.90
19164;DHT22;9714;51.208;4.242;2023-03-02T03:29:29;2.80;99.90
19164;DHT22;9714;51.208;4.242;2023-03-02T03:32:00;2.90;99.90
19164;DHT22;9714;51.208;4.242;2023-03-02T03:34:33;2.80;99.90
19164;DHT22;9714;51.208;4.242;2023-03-02T03:37:14;2.70;99.90
19164;DHT22;9714;51.208;4.242;2023-03-02T03:39:42;2.70;99.90
19164;DHT22;9714;51.208;4.242;2023-03-02T03:42:17;2.70;99.90
19164;DHT22;9714;51.208;4.242;2023-03-02T03:44:44;2.80;99.90
19164;DHT22;9714;51.208;4.242;2023-03-02T03:47:12;2.70;99.90
19164;DHT22;9714;51.208;4.242;2023-03-02T03:56:14;2.50;99.90
19164;DHT22;9714;51.208;4.242;2023-03-02T03:58:44;2.60;99.90
19164;DHT22;9714;51.208;4.242;2023-03-02T04:01:14;2.50;99.90
19164;DHT22;9714;51.208;4.242;2023-03-02T04:03:42;2.70;99.90
19164;DHT22;9714;51.208;4.242;2023-03-02T04:06:10;2.60;99.90
19164;DHT22;9714;51.208;4.242;2023-03-02T04:08:43;2.70;99.90
19164;DHT22;9714;51.208;4.242;2023-03-02T04:11:14;2.70;99.90
19164;DHT22;9714;51.208;4.242;2023-03-02T04:13:42;2.60;99.90
19164;DHT22;9714;51.208;4.242;2023-03-02T04:16:12;2.50;99.90
19164;DHT22;9714;51.208;4.242;2023-03-02T04:18:40;2.60;99.90
19164;DHT22;9714;51.208;4.242;2023-03-02T04:21:14;2.70;99.90
19164;DHT22;9714;51.208;4.242;2023-03-02T04:23:47;2.50;99.90
19164;DHT22;9714;51.208;4.242;2023-03-02T04:26:15;2.40;99.90
19164;DHT22;9714;51.208;4.242;2023-03-02T04:28:43;2.50;99.90
19164;DHT22;9714;51.208;4.242;2023-03-02T04:31:13;2.40;99.90
19164;DHT22;9714;51.208;4.242;2023-03-02T04:34:00;2.40;99.90
19164;DHT22;9714;51.208;4.242;2023-03-02T04:36:32;2.40;99.90
19164;DHT22;9714;51.208;4.242;2023-03-02T04:39:03;2.20;99.90
19164;DHT22;9714;51.208;4.242;2023-03-02T04:41:38;2.20;99.90
19164;DHT22;9714;51.208;4.242;2023-03-02T04:44:11;2.10;99.90
19164;DHT22;9714;51.208;4.242;2023-03-02T04:46:45;2.10;99.90
19164;DHT22;9714;51.208;4.242;2023-03-02T04:49:15;2.10;99.90
19164;DHT22;9714;51.208;4.242;2023-03-02T04:51:46;2.20;99.90
19164;DHT22;9714;51.208;4.242;2023-03-02T04:54:23;2.10;99.90
19164;DHT22;9714;51.208;4.242;2023-03-02T04:56:53;2.10;99.90
19164;DHT22;9714;51.208;4.242;2023-03-02T04:59:22;2.00;99.90
19164;DHT22;9714;51.208;4.242;2023-03-02T05:01:51;2.10;99.90
19164;DHT22;9714;51.208;4.242;2023-03-02T05:04:18;2.10;99.90
19164;DHT22;9714;51.208;4.242;2023-03-02T05:06:46;2.10;99.90
19164;DHT22;9714;51.208;4.242;2023-03-02T05:09:13;2.00;99.90
19164;DHT22;9714;51.208;4.242;2023-03-02T05:11:41;2.10;99.90
19164;DHT22;9714;51.208;4.242;2023-03-02T05:14:11;2.10;99.90
19164;DHT22;9714;51.208;4.242;2023-03-02T05:16:40;2.00;99.90
19164;DHT22;9714;51.208;4.242;2023-03-02T05:19:08;2.00;99.90
19164;DHT22;9714;51.208;4.242;2023-03-02T05:21:36;2.10;99.90
19164;DHT22;9714;51.208;4.242;2023-03-02T05:24:06;2.20;99.90
19164;DHT22;9714;51.208;4.242;2023-03-02T05:26:33;2.10;99.90
19164;DHT22;9714;51.208;4.242;2023-03-02T05:29:00;2.10;99.90
19164;DHT22;9714;51.208;4.242;2023-03-02T05:31:32;2.10;99.90
19164;DHT22;9714;51.208;4.242;2023-03-02T05:34:01;1.90;99.90
19164;DHT22;9714;51.208;4.242;2023-03-02T05:36:28;2.00;99.90
19164;DHT22;9714;51.208;4.242;2023-03-02T05:38:56;2.00;99.90
19164;DHT22;9714;51.208;4.242;2023-03-02T05:41:25;1.90;99.90
19164;DHT22;9714;51.208;4.242;2023-03-02T05:43:52;1.90;99.90
19164;DHT22;9714;51.208;4.242;2023-03-02T05:46:19;2.10;99.90
19164;DHT22;9714;51.208;4.242;2023-03-02T05:48:48;2.00;99.90
19164;DHT22;9714;51.208;4.242;2023-03-02T05:51:15;2.00;99.90
19164;DHT22;9714;51.208;4.242;2023-03-02T05:53:42;1.90;99.90
19164;DHT22;9714;51.208;4.242;2023-03-02T05:56:31;2.00;99.90
19164;DHT22;9714;51.208;4.242;2023-03-02T05:59:07;2.00;99.90
19164;DHT22;9714;51.208;4.242;2023-03-02T06:01:35;1.80;99.90
19164;DHT22;9714;51.208;4.242;2023-03-02T06:04:04;1.80;99.90
19164;DHT22;9714;51.208;4.242;2023-03-02T06:06:32;1.90;99.90
19164;DHT22;9714;51.208;4.242;2023-03-02T06:08:59;1.90;99.90
19164;DHT22;9714;51.208;4.242;2023-03-02T06:11:26;1.90;99.90
19164;DHT22;9714;51.208;4.242;2023-03-02T06:13:55;1.80;99.90
19164;DHT22;9714;51.208;4.242;2023-03-02T06:16:24;1.90;99.90
19164;DHT22;9714;51.208;4.242;2023-03-02T06:18:59;2.00;99.90
19164;DHT22;9714;51.208;4.242;2023-03-02T06:21:36;1.90;99.90
19164;DHT22;9714;51.208;4.242;2023-03-02T06:27:12;1.90;99.90
19164;DHT22;9714;51.208;4.242;2023-03-02T06:29:55;1.90;99.90
19164;DHT22;9714;51.208;4.242;2023-03-02T06:32:23;1.90;99.90
19164;DHT22;9714;51.208;4.242;2023-03-02T06:34:50;1.90;99.90
19164;DHT22;9714;51.208;4.242;2023-03-02T06:37:18;1.90;99.90
19164;DHT22;9714;51.208;4.242;2023-03-02T06:39:46;2.00;99.90
19164;DHT22;9714;51.208;4.242;2023-03-02T06:42:12;1.90;99.90
19164;DHT22;9714;51.208;4.242;2023-03-02T06:44:39;2.10;99.90
19164;DHT22;9714;51.208;4.242;2023-03-02T06:47:12;2.10;99.90
19164;DHT22;9714;51.208;4.242;2023-03-02T06:49:41;2.00;99.90
19164;DHT22;9714;51.208;4.242;2023-03-02T06:52:08;2.00;99.90
19164;DHT22;9714;51.208;4.242;2023-03-02T06:54:37;2.00;99.90
19164;DHT22;9714;51.208;4.242;2023-03-02T06:57:05;2.20;99.90
19164;DHT22;9714;51.208;4.242;2023-03-02T06:59:35;2.30;99.90
19164;DHT22;9714;51.208;4.242;2023-03-02T07:02:02;2.40;99.90
19164;DHT22;9714;51.208;4.242;2023-03-02T07:04:31;2.60;99.90
19164;DHT22;9714;51.208;4.242;2023-03-02T07:07:01;2.70;99.90
19164;DHT22;9714;51.208;4.242;2023-03-02T07:09:32;2.90;99.90
19164;DHT22;9714;51.208;4.242;2023-03-02T07:12:00;3.00;99.90
19164;DHT22;9714;51.208;4.242;2023-03-02T07:14:27;3.30;99.90
19164;DHT22;9714;51.208;4.242;2023-03-02T07:16:55;3.40;99.90
19164;DHT22;9714;51.208;4.242;2023-03-02T07:19:24;3.60;99.90
19164;DHT22;9714;51.208;4.242;2023-03-02T07:21:53;3.70;99.90
19164;DHT22;9714;51.208;4.242;2023-03-02T07:24:20;3.80;99.90
19164;DHT22;9714;51.208;4.242;2023-03-02T07:26:48;4.20;99.90
19164;DHT22;9714;51.208;4.242;2023-03-02T07:29:16;4.70;99.90
19164;DHT22;9714;51.208;4.242;2023-03-02T07:31:49;5.40;99.90
19164;DHT22;9714;51.208;4.242;2023-03-02T07:34:22;5.90;99.90
19164;DHT22;9714;51.208;4.242;2023-03-02T07:36:49;6.00;99.90
19164;DHT22;9714;51.208;4.242;2023-03-02T07:39:16;6.10;99.90
19164;DHT22;9714;51.208;4.242;2023-03-02T07:41:43;6.40;99.90
19164;DHT22;9714;51.208;4.242;2023-03-02T07:44:10;6.10;99.90
19164;DHT22;9714;51.208;4.242;2023-03-02T07:46:39;6.50;99.90
19164;DHT22;9714;51.208;4.242;2023-03-02T07:49:08;6.70;99.90
19164;DHT22;9714;51.208;4.242;2023-03-02T07:51:35;6.80;99.90
19164;DHT22;9714;51.208;4.242;2023-03-02T07:54:05;7.00;99.90
19164;DHT22;9714;51.208;4.242;2023-03-02T07:56:32;7.10;99.90
19164;DHT22;9714;51.208;4.242;2023-03-02T07:59:00;7.20;99.90
19164;DHT22;9714;51.208;4.242;2023-03-02T08:01:28;7.40;99.90
19164;DHT22;9714;51.208;4.242;2023-03-02T08:03:56;7.70;99.90
19164;DHT22;9714;51.208;4.242;2023-03-02T08:06:23;8.10;99.90
19164;DHT22;9714;51.208;4.242;2023-03-02T08:08:51;8.50;99.90
19164;DHT22;9714;51.208;4.242;2023-03-02T08:11:21;8.60;99.90
19164;DHT22;9714;51.208;4.242;2023-03-02T08:13:48;8.70;99.90
19164;DHT22;9714;51.208;4.242;2023-03-02T08:16:15;8.30;99.90
19164;DHT22;9714;51.208;4.242;2023-03-02T08:18:43;8.50;99.90
19164;DHT22;9714;51.208;4.242;2023-03-02T08:21:15;8.60;99.90
19164;DHT22;9714;51.208;4.242;2023-03-02T08:23:45;8.70;99.90
19164;DHT22;9714;51.208;4.242;2023-03-02T08:26:13;8.90;99.90
19164;DHT22;9714;51.208;4.242;2023-03-02T08:28:41;8.60;99.90
19164;DHT22;9714;51.208;4.242;2023-03-02T08:31:09;8.20;99.90
19164;DHT22;9714;51.208;4.242;2023-03-02T08:33:38;7.90;99.90
19164;DHT22;9714;51.208;4.242;2023-03-02T08:36:07;8.20;99.90
19164;DHT22;9714;51.208;4.242;2023-03-02T08:38:38;8.20;99.90
19164;DHT22;9714;51.208;4.242;2023-03-02T08:41:09;8.60;99.90
19164;DHT22;9714;51.208;4.242;2023-03-02T08:43:38;8.80;99.90
19164;DHT22;9714;51.208;4.242;2023-03-02T08:46:12;9.40;99.90
19164;DHT22;9714;51.208;4.242;2023-03-02T08:48:42;10.00;99.90
19164;DHT22;9714;51.208;4.242;2023-03-02T08:51:16;9.50;99.90
19164;DHT22;9714;51.208;4.242;2023-03-02T08:53:47;10.10;99.90
19164;DHT22;9714;51.208;4.242;2023-03-02T08:56:17;10.30;99.90
19164;DHT22;9714;51.208;4.242;2023-03-02T08:58:52;10.10;99.90
19164;DHT22;9714;51.208;4.242;2023-03-02T09:01:22;10.30;99.90
19164;DHT22;9714;51.208;4.242;2023-03-02T09:03:55;10.00;99.90
19164;DHT22;9714;51.208;4.242;2023-03-02T09:06:24;10.20;99.90
19164;DHT22;9714;51.208;4.242;2023-03-02T09:08:52;10.30;99.90
19164;DHT22;9714;51.208;4.242;2023-03-02T09:11:20;10.30;99.90
19164;DHT22;9714;51.208;4.242;2023-03-02T09:13:47;10.30;99.90
19164;DHT22;9714;51.208;4.242;2023-03-02T09:16:15;10.70;99.90
19164;DHT22;9714;51.208;4.242;2023-03-02T09:18:44;11.10;99.90
19164;DHT22;9714;51.208;4.242;2023-03-02T09:21:11;11.70;99.30
19164;DHT22;9714;51.208;4.242;2023-03-02T09:23:38;11.60;98.70
19164;DHT22;9714;51.208;4.242;2023-03-02T09:26:06;11.90;97.50
19164;DHT22;9714;51.208;4.242;2023-03-02T09:28:34;11.90;95.80
19164;DHT22;9714;51.208;4.242;2023-03-02T09:31:05;11.80;96.10
19164;DHT22;9714;51.208;4.242;2023-03-02T09:33:33;12.50;95.20
19164;DHT22;9714;51.208;4.242;2023-03-02T09:36:04;12.90;93.40
19164;DHT22;9714;51.208;4.242;2023-03-02T09:38:31;12.70;92.70
19164;DHT22;9714;51.208;4.242;2023-03-02T09:41:21;12.20;91.90
19164;DHT22;9714;51.208;4.242;2023-03-02T09:43:56;12.50;92.10
19164;DHT22;9714;51.208;4.242;2023-03-02T09:46:29;12.00;91.50
19164;DHT22;9714;51.208;4.242;2023-03-02T09:49:11;12.70;91.30
19164;DHT22;9714;51.208;4.242;2023-03-02T09:51:47;13.20;90.30
19164;DHT22;9714;51.208;4.242;2023-03-02T09:54:20;12.90;89.60
19164;DHT22;9714;51.208;4.242;2023-03-02T09:56:55;13.40;89.80
19164;DHT22;9714;51.208;4.242;2023-03-02T09:59:26;13.70;85.90
19164;DHT22;9714;51.208;4.242;2023-03-02T10:01:58;14.40;85.00
19164;DHT22;9714;51.208;4.242;2023-03-02T10:04:29;13.60;84.30
19164;DHT22;9714;51.208;4.242;2023-03-02T10:07:04;14.10;85.30
19164;DHT22;9714;51.208;4.242;2023-03-02T10:09:42;14.90;82.00
19164;DHT22;9714;51.208;4.242;2023-03-02T10:12:35;15.20;80.30
19164;DHT22;9714;51.208;4.242;2023-03-02T10:15:16;15.70;77.60
19164;DHT22;9714;51.208;4.242;2023-03-02T10:17:55;14.70;77.50
19164;DHT22;9714;51.208;4.242;2023-03-02T10:20:29;14.90;77.00
19164;DHT22;9714;51.208;4.242;2023-03-02T10:23:07;15.00;75.80
19164;DHT22;9714;51.208;4.242;2023-03-02T10:25:42;14.80;77.30
19164;DHT22;9714;51.208;4.242;2023-03-02T10:28:18;15.40;75.80
19164;DHT22;9714;51.208;4.242;2023-03-02T10:30:50;16.10;74.60
19164;DHT22;9714;51.208;4.242;2023-03-02T10:33:19;14.80;73.70
19164;DHT22;9714;51.208;4.242;2023-03-02T10:35:51;14.70;74.10
19164;DHT22;9714;51.208;4.242;2023-03-02T10:38:20;14.70;76.00
19164;DHT22;9714;51.208;4.242;2023-03-02T10:40:49;15.80;73.50
19164;DHT22;9714;51.208;4.242;2023-03-02T10:43:28;16.30;72.20
19164;DHT22;9714;51.208;4.242;2023-03-02T10:46:02;17.10;70.70
19164;DHT22;9714;51.208;4.242;2023-03-02T10:48:29;16.40;69.00
19164;DHT22;9714;51.208;4.242;2023-03-02T10:50:58;16.50;68.60
19164;DHT22;9714;51.208;4.242;2023-03-02T10:53:25;17.20;67.60
19164;DHT22;9714;51.208;4.242;2023-03-02T10:55:55;18.00;65.90
19164;DHT22;9714;51.208;4.242;2023-03-02T10:58:29;17.40;64.00
19164;DHT22;9714;51.208;4.242;2023-03-02T11:01:01;17.30;65.60
19164;DHT22;9714;51.208;4.242;2023-03-02T11:03:29;16.80;65.40
19164;DHT22;9714;51.208;4.242;2023-03-02T11:05:57;18.30;64.30
19164;DHT22;9714;51.208;4.242;2023-03-02T11:08:26;19.00;61.60
19164;DHT22;9714;51.208;4.242;2023-03-02T11:10:57;18.90;59.70
19164;DHT22;9714;51.208;4.242;2023-03-02T11:13:27;20.10;58.60
19164;DHT22;9714;51.208;4.242;2023-03-02T11:15:56;20.70;56.40
19164;DHT22;9714;51.208;4.242;2023-03-02T11:18:26;19.40;55.80
19164;DHT22;9714;51.208;4.242;2023-03-02T11:20:59;18.80;57.30
19164;DHT22;9714;51.208;4.242;2023-03-02T11:23:35;19.00;56.40
19164;DHT22;9714;51.208;4.242;2023-03-02T11:26:10;18.60;55.60
19164;DHT22;9714;51.208;4.242;2023-03-02T11:28:47;19.30;56.40
19164;DHT22;9714;51.208;4.242;2023-03-02T11:31:22;20.20;55.00
19164;DHT22;9714;51.208;4.242;2023-03-02T11:34:23;20.60;54.20
19164;DHT22;9714;51.208;4.242;2023-03-02T11:37:11;20.20;53.90
19164;DHT22;9714;51.208;4.242;2023-03-02T11:42:35;19.50;54.10
19164;DHT22;9714;51.208;4.242;2023-03-02T11:45:16;20.70;53.70
19164;DHT22;9714;51.208;4.242;2023-03-02T11:47:46;20.50;51.90
19164;DHT22;9714;51.208;4.242;2023-03-02T11:50:16;21.20;51.50
19164;DHT22;9714;51.208;4.242;2023-03-02T11:52:46;20.60;51.30
19164;DHT22;9714;51.208;4.242;2023-03-02T11:55:17;20.90;51.30
19164;DHT22;9714;51.208;4.242;2023-03-02T11:57:49;21.10;50.50
19164;DHT22;9714;51.208;4.242;2023-03-02T12:00:31;20.70;50.60
19164;DHT22;9714;51.208;4.242;2023-03-02T12:03:03;20.80;51.00
19164;DHT22;9714;51.208;4.242;2023-03-02T12:05:31;20.80;50.60
19164;DHT22;9714;51.208;4.242;2023-03-02T12:08:03;21.30;50.50
19164;DHT22;9714;51.208;4.242;2023-03-02T12:10:33;21.90;49.80
19164;DHT22;9714;51.208;4.242;2023-03-02T12:13:13;21.60;48.90
19164;DHT22;9714;51.208;4.242;2023-03-02T12:15:49;22.30;49.10
19164;DHT22;9714;51.208;4.242;2023-03-02T12:18:41;22.60;48.90
19164;DHT22;9714;51.208;4.242;2023-03-02T12:21:11;21.90;48.90
19164;DHT22;9714;51.208;4.242;2023-03-02T12:23:58;22.00;48.50
19164;DHT22;9714;51.208;4.242;2023-03-02T12:26:35;22.60;48.20
19164;DHT22;9714;51.208;4.242;2023-03-02T12:29:06;22.40;48.20
19164;DHT22;9714;51.208;4.242;2023-03-02T12:31:51;22.60;47.40
19164;DHT22;9714;51.208;4.242;2023-03-02T12:34:34;23.10;47.40
19164;DHT22;9714;51.208;4.242;2023-03-02T12:37:11;23.10;46.80
19164;DHT22;9714;51.208;4.242;2023-03-02T12:40:10;22.40;46.70
19164;DHT22;9714;51.208;4.242;2023-03-02T12:42:49;22.10;47.00
19164;DHT22;9714;51.208;4.242;2023-03-02T12:45:26;21.60;47.70
19164;DHT22;9714;51.208;4.242;2023-03-02T12:48:05;21.40;49.00
19164;DHT22;9714;51.208;4.242;2023-03-02T12:50:42;21.60;48.60
19164;DHT22;9714;51.208;4.242;2023-03-02T12:53:17;22.20;47.50
19164;DHT22;9714;51.208;4.242;2023-03-02T12:55:44;23.00;47.00
19164;DHT22;9714;51.208;4.242;2023-03-02T12:58:16;23.00;46.40
19164;DHT22;9714;51.208;4.242;2023-03-02T13:00:49;22.60;45.90
19164;DHT22;9714;51.208;4.242;2023-03-02T13:03:19;22.60;46.20
19164;DHT22;9714;51.208;4.242;2023-03-02T13:05:48;23.30;46.40
19164;DHT22;9714;51.208;4.242;2023-03-02T13:08:17;24.20;45.50
19164;DHT22;9714;51.208;4.242;2023-03-02T13:10:56;24.50;45.20
19164;DHT22;9714;51.208;4.242;2023-03-02T13:13:26;25.00;44.30
19164;DHT22;9714;51.208;4.242;2023-03-02T13:15:55;25.00;44.30
19164;DHT22;9714;51.208;4.242;2023-03-02T13:18:30;25.50;43.40
19164;DHT22;9714;51.208;4.242;2023-03-02T13:20:58;25.30;43.40
19164;DHT22;9714;51.208;4.242;2023-03-02T13:23:28;24.50;43.10
19164;DHT22;9714;51.208;4.242;2023-03-02T13:25:59;23.70;44.60
19164;DHT22;9714;51.208;4.242;2023-03-02T13:28:29;23.80;44.80
19164;DHT22;9714;51.208;4.242;2023-03-02T13:30:59;24.50;43.80
19164;DHT22;9714;51.208;4.242;2023-03-02T13:33:30;24.30;43.60
19164;DHT22;9714;51.208;4.242;2023-03-02T13:35:59;23.30;44.00
19164;DHT22;9714;51.208;4.242;2023-03-02T13:38:30;22.70;45.40
19164;DHT22;9714;51.208;4.242;2023-03-02T13:40:59;23.20;44.90
19164;DHT22;9714;51.208;4.242;2023-03-02T13:43:33;23.20;45.30
19164;DHT22;9714;51.208;4.242;2023-03-02T13:46:03;23.30;44.40
19164;DHT22;9714;51.208;4.242;2023-03-02T13:48:32;22.90;45.30
19164;DHT22;9714;51.208;4.242;2023-03-02T13:51:02;23.10;44.60
19164;DHT22;9714;51.208;4.242;2023-03-02T13:53:31;23.40;44.50
19164;DHT22;9714;51.208;4.242;2023-03-02T13:56:03;23.70;44.10
19164;DHT22;9714;51.208;4.242;2023-03-02T13:58:36;23.20;44.60
19164;DHT22;9714;51.208;4.242;2023-03-02T14:01:04;23.50;44.40
19164;DHT22;9714;51.208;4.242;2023-03-02T14:03:38;23.60;44.20
19164;DHT22;9714;51.208;4.242;2023-03-02T14:06:09;23.80;43.90
19164;DHT22;9714;51.208;4.242;2023-03-02T14:08:39;23.90;44.10
19164;DHT22;9714;51.208;4.242;2023-03-02T14:11:09;23.80;44.00
19164;DHT22;9714;51.208;4.242;2023-03-02T14:13:41;24.00;43.90
19164;DHT22;9714;51.208;4.242;2023-03-02T14:16:13;24.30;43.70
19164;DHT22;9714;51.208;4.242;2023-03-02T14:18:44;23.90;43.40
19164;DHT22;9714;51.208;4.242;2023-03-02T14:21:15;23.30;44.60
19164;DHT22;9714;51.208;4.242;2023-03-02T14:23:42;23.40;44.70
19164;DHT22;9714;51.208;4.242;2023-03-02T14:26:22;22.60;44.50
19164;DHT22;9714;51.208;4.242;2023-03-02T14:28:55;22.80;45.10
19164;DHT22;9714;51.208;4.242;2023-03-02T14:31:22;23.40;44.60
19164;DHT22;9714;51.208;4.242;2023-03-02T14:33:53;23.00;44.10
19164;DHT22;9714;51.208;4.242;2023-03-02T14:36:26;22.40;44.80
19164;DHT22;9714;51.208;4.242;2023-03-02T14:38:55;22.20;44.90
19164;DHT22;9714;51.208;4.242;2023-03-02T14:41:24;22.50;44.10
19164;DHT22;9714;51.208;4.242;2023-03-02T14:43:51;22.70;44.90
19164;DHT22;9714;51.208;4.242;2023-03-02T14:46:23;22.80;43.80
19164;DHT22;9714;51.208;4.242;2023-03-02T14:48:50;23.00;43.60
19164;DHT22;9714;51.208;4.242;2023-03-02T14:51:22;23.40;43.60
19164;DHT22;9714;51.208;4.242;2023-03-02T14:53:50;23.60;43.10
19164;DHT22;9714;51.208;4.242;2023-03-02T14:56:19;23.00;42.90
19164;DHT22;9714;51.208;4.242;2023-03-02T14:58:48;22.40;42.90
19164;DHT22;9714;51.208;4.242;2023-03-02T15:01:18;22.80;43.50
19164;DHT22;9714;51.208;4.242;2023-03-02T15:04:00;23.00;43.70
19164;DHT22;9714;51.208;4.242;2023-03-02T15:06:32;22.80;43.10
19164;DHT22;9714;51.208;4.242;2023-03-02T15:09:06;23.00;42.80
19164;DHT22;9714;51.208;4.242;2023-03-02T15:11:39;23.30;42.90
19164;DHT22;9714;51.208;4.242;2023-03-02T15:14:26;23.50;42.60
19164;DHT22;9714;51.208;4.242;2023-03-02T15:17:01;22.80;42.60
19164;DHT22;9714;51.208;4.242;2023-03-02T15:19:28;22.80;43.30
19164;DHT22;9714;51.208;4.242;2023-03-02T15:21:59;22.10;43.00
19164;DHT22;9714;51.208;4.242;2023-03-02T15:24:29;22.10;42.70
19164;DHT22;9714;51.208;4.242;2023-03-02T15:27:13;21.60;43.40
19164;DHT22;9714;51.208;4.242;2023-03-02T15:29:46;21.80;43.60
19164;DHT22;9714;51.208;4.242;2023-03-02T15:32:17;22.10;43.40
19164;DHT22;9714;51.208;4.242;2023-03-02T15:34:46;22.10;43.00
19164;DHT22;9714;51.208;4.242;2023-03-02T15:37:18;21.10;42.80
19164;DHT22;9714;51.208;4.242;2023-03-02T15:39:51;21.10;43.90
19164;DHT22;9714;51.208;4.242;2023-03-02T15:42:19;21.10;44.10
19164;DHT22;9714;51.208;4.242;2023-03-02T15:44:47;21.30;43.70
19164;DHT22;9714;51.208;4.242;2023-03-02T15:47:16;21.00;43.50
19164;DHT22;9714;51.208;4.242;2023-03-02T15:49:49;20.60;43.80
19164;DHT22;9714;51.208;4.242;2023-03-02T15:52:17;21.00;43.60
19164;DHT22;9714;51.208;4.242;2023-03-02T15:54:45;20.90;43.20
19164;DHT22;9714;51.208;4.242;2023-03-02T15:57:13;20.20;43.40
19164;DHT22;9714;51.208;4.242;2023-03-02T15:59:45;20.30;44.30
19164;DHT22;9714;51.208;4.242;2023-03-02T16:02:23;20.70;43.40
19164;DHT22;9714;51.208;4.242;2023-03-02T16:04:52;20.90;43.10
19164;DHT22;9714;51.208;4.242;2023-03-02T16:07:22;20.50;43.10
19164;DHT22;9714;51.208;4.242;2023-03-02T16:10:02;20.40;43.30
19164;DHT22;9714;51.208;4.242;2023-03-02T16:12:44;20.50;43.50
19164;DHT22;9714;51.208;4.242;2023-03-02T16:15:15;19.70;43.90
19164;DHT22;9714;51.208;4.242;2023-03-02T16:17:50;19.40;43.70
19164;DHT22;9714;51.208;4.242;2023-03-02T16:20:20;18.60;44.30
19164;DHT22;9714;51.208;4.242;2023-03-02T16:22:52;18.20;45.10
19164;DHT22;9714;51.208;4.242;2023-03-02T16:25:19;17.50;45.80
19164;DHT22;9714;51.208;4.242;2023-03-02T16:27:46;17.10;46.40
19164;DHT22;9714;51.208;4.242;2023-03-02T16:30:15;16.60;47.30
19164;DHT22;9714;51.208;4.242;2023-03-02T16:32:45;15.90;47.90
19164;DHT22;9714;51.208;4.242;2023-03-02T16:35:14;15.60;48.30
19164;DHT22;9714;51.208;4.242;2023-03-02T16:37:42;15.30;48.90
19164;DHT22;9714;51.208;4.242;2023-03-02T16:40:16;15.10;49.20
19164;DHT22;9714;51.208;4.242;2023-03-02T16:42:44;15.00;49.50
19164;DHT22;9714;51.208;4.242;2023-03-02T16:45:11;14.70;49.90
19164;DHT22;9714;51.208;4.242;2023-03-02T16:47:44;14.70;50.30
19164;DHT22;9714;51.208;4.242;2023-03-02T16:50:12;14.60;51.00
19164;DHT22;9714;51.208;4.242;2023-03-02T16:52:45;14.40;51.50
19164;DHT22;9714;51.208;4.242;2023-03-02T16:55:17;14.40;52.10